Time;durP1;ratioP1;P1;durP2;ratioP2;P2;SDS_P1;SDS_P2;PMS_P1;PMS_P2;Temp;Humidity;BMP_temperature;BMP_pressure;BME280_temperature;BME280_humidity;BME280_pressure;Samples;Min_cycle;Max_cycle;Signal;HPM_P1;HPM_P2
2024/04/19 00:00:03;;;;;;;4.25;3.38;;;7.10;99.90;;;;;;5310828;27;20457;-70
2024/04/19 00:02:29;;;;;;;5.22;2.90;;;7.10;99.90;;;;;;5310379;26;20076;-69
2024/04/19 00:04:54;;;;;;;5.30;3.28;;;7.10;99.90;;;;;;5310211;26;20005;-70
2024/04/19 00:07:20;;;;;;;5.53;3.38;;;7.10;99.90;;;;;;5309954;26;20002;-69
2024/04/19 00:09:47;;;;;;;9.73;3.63;;;7.00;99.90;;;;;;5310655;27;20014;-69
2024/04/19 00:12:13;;;;;;;4.70;2.95;;;7.10;99.90;;;;;;5310519;27;20006;-70
2024/04/19 00:14:39;;;;;;;4.78;3.03;;;7.10;99.90;;;;;;5362122;21;20005;-77
2024/04/19 00:17:04;;;;;;;7.07;3.72;;;7.00;99.90;;;;;;5340981;26;20005;-77
2024/04/19 00:19:30;;;;;;;5.90;3.70;;;7.00;99.90;;;;;;5342645;26;20349;-77
2024/04/19 00:22:16;;;;;;;7.60;3.60;;;7.00;99.90;;;;;;5317665;26;20019;-77
2024/04/19 00:24:41;;;;;;;8.27;3.92;;;7.10;99.90;;;;;;5343320;26;20001;-76
2024/04/19 00:27:07;;;;;;;7.07;3.75;;;7.00;99.90;;;;;;5343782;26;20012;-76
2024/04/19 00:29:33;;;;;;;7.97;4.40;;;7.00;99.90;;;;;;5344087;26;20013;-76
2024/04/19 00:31:59;;;;;;;8.25;4.70;;;7.00;99.90;;;;;;5345280;26;20079;-76
2024/04/19 00:34:24;;;;;;;9.68;3.83;;;7.00;99.90;;;;;;5344823;26;20015;-76
2024/04/19 00:36:50;;;;;;;6.38;3.80;;;7.00;99.90;;;;;;5345021;26;20013;-76
2024/04/19 00:39:16;;;;;;;5.20;3.90;;;7.00;99.90;;;;;;5345122;26;20004;-76
2024/04/19 00:41:42;;;;;;;6.72;3.88;;;7.00;99.90;;;;;;5344662;26;20016;-76
2024/04/19 00:44:07;;;;;;;6.75;4.30;;;7.00;99.90;;;;;;5344480;26;20012;-76
2024/04/19 00:46:34;;;;;;;5.80;4.20;;;7.00;99.90;;;;;;5344678;26;20086;-77
2024/04/19 00:49:00;;;;;;;6.28;4.63;;;7.00;99.90;;;;;;5345012;26;20020;-76
2024/04/19 00:51:25;;;;;;;8.52;4.05;;;7.00;99.90;;;;;;5342858;26;20005;-76
2024/04/19 00:53:51;;;;;;;14.32;6.10;;;7.00;99.90;;;;;;5344245;26;20424;-77
2024/04/19 00:56:17;;;;;;;7.20;4.45;;;7.10;99.90;;;;;;5344900;26;20005;-76
2024/04/19 00:58:43;;;;;;;7.03;4.97;;;7.00;99.90;;;;;;5346109;26;20005;-76
2024/04/19 01:01:12;;;;;;;9.50;5.10;;;7.10;99.90;;;;;;5347705;26;20012;-76
2024/04/19 01:03:38;;;;;;;6.53;4.85;;;7.00;99.90;;;;;;5347350;26;20100;-77
2024/04/19 01:06:24;;;;;;;10.05;5.93;;;7.10;99.90;;;;;;5346406;26;20009;-76
2024/04/19 01:08:49;;;;;;;7.30;4.88;;;7.10;99.90;;;;;;5347957;26;20005;-76
2024/04/19 01:11:16;;;;;;;9.35;5.28;;;7.10;99.90;;;;;;5347788;26;20033;-76
2024/04/19 01:13:43;;;;;;;6.43;5.22;;;7.10;99.90;;;;;;5347157;26;20016;-76
2024/04/19 01:16:08;;;;;;;7.70;5.40;;;7.10;99.90;;;;;;5348016;26;20531;-76
2024/04/19 01:18:34;;;;;;;9.98;5.38;;;7.10;99.90;;;;;;5347990;26;20005;-76
2024/04/19 01:21:00;;;;;;;9.35;5.65;;;7.10;99.90;;;;;;5346030;26;20005;-76
2024/04/19 01:23:28;;;;;;;10.35;6.13;;;7.10;99.90;;;;;;5347611;26;20487;-76
2024/04/19 01:25:54;;;;;;;8.23;5.43;;;7.10;99.90;;;;;;5345697;26;20460;-76
2024/04/19 01:28:20;;;;;;;7.43;4.70;;;7.10;99.90;;;;;;5347531;26;20005;-76
2024/04/19 01:30:46;;;;;;;12.82;5.97;;;7.10;99.90;;;;;;5347208;26;20013;-77
2024/04/19 01:33:12;;;;;;;9.48;5.65;;;7.10;99.90;;;;;;5347770;26;20383;-76
2024/04/19 01:35:38;;;;;;;9.65;5.10;;;7.20;99.90;;;;;;5347043;26;20008;-76
2024/04/19 01:38:04;;;;;;;7.68;4.15;;;7.20;99.90;;;;;;5347541;26;20083;-77
2024/04/19 01:40:30;;;;;;;7.28;4.60;;;7.20;99.90;;;;;;5347345;26;20009;-76
2024/04/19 01:42:55;;;;;;;5.82;3.78;;;7.30;99.90;;;;;;5345745;26;20337;-76
2024/04/19 01:45:21;;;;;;;7.72;3.88;;;7.30;99.90;;;;;;5346829;26;20012;-76
2024/04/19 01:47:47;;;;;;;6.32;4.57;;;7.30;99.90;;;;;;5347437;26;20387;-76
2024/04/19 01:50:13;;;;;;;9.77;3.60;;;7.30;99.90;;;;;;5347104;26;20004;-76
2024/04/19 01:52:38;;;;;;;6.20;3.65;;;7.40;99.90;;;;;;5347389;26;20005;-76
2024/04/19 01:55:04;;;;;;;5.43;3.45;;;7.30;99.90;;;;;;5346696;26;20001;-76
2024/04/19 01:57:30;;;;;;;5.93;3.70;;;7.30;99.90;;;;;;5347393;26;20016;-76
2024/04/19 01:59:56;;;;;;;4.75;3.17;;;7.30;99.90;;;;;;5346958;26;20004;-76
2024/04/19 02:02:24;;;;;;;5.43;2.70;;;7.40;99.90;;;;;;5347309;26;20458;-76
2024/04/19 02:04:50;;;;;;;4.55;2.50;;;7.40;99.90;;;;;;5346638;26;20005;-76
2024/04/19 02:07:16;;;;;;;7.03;2.72;;;7.40;99.90;;;;;;5347321;26;20019;-76
2024/04/19 02:09:41;;;;;;;5.97;2.90;;;7.40;99.90;;;;;;5346912;26;20017;-76
2024/04/19 02:12:08;;;;;;;5.22;2.72;;;7.40;99.90;;;;;;5346845;26;20011;-76
2024/04/19 02:14:34;;;;;;;6.03;2.13;;;7.50;99.90;;;;;;5346568;26;20012;-76
2024/04/19 02:17:00;;;;;;;4.88;1.80;;;7.40;99.90;;;;;;5374722;26;20016;-76
2024/04/19 02:19:45;;;;;;;5.20;1.70;;;7.40;99.90;;;;;;5347317;26;20032;-76
2024/04/19 02:22:10;;;;;;;2.42;1.60;;;7.40;99.90;;;;;;5346527;26;20016;-76
2024/04/19 02:24:36;;;;;;;4.28;1.50;;;7.40;99.90;;;;;;5345896;26;20469;-76
2024/04/19 02:27:05;;;;;;;6.15;1.75;;;7.40;99.90;;;;;;5346887;26;20013;-75
2024/04/19 02:32:16;;;;;;;3.10;2.30;;;7.50;99.90;;;;;;5346866;26;20001;-76
2024/04/19 02:34:42;;;;;;;3.50;1.77;;;7.50;99.90;;;;;;5344512;26;20005;-76
2024/04/19 02:37:08;;;;;;;2.38;1.30;;;7.50;99.90;;;;;;5347352;26;20053;-76
2024/04/19 02:39:34;;;;;;;3.70;1.48;;;7.50;99.90;;;;;;5346929;26;20001;-75
2024/04/19 02:42:05;;;;;;;4.30;1.40;;;7.50;99.90;;;;;;5346650;26;20016;-76
2024/04/19 02:44:30;;;;;;;4.85;1.30;;;7.60;99.90;;;;;;5346257;26;20012;-76
2024/04/19 02:46:56;;;;;;;3.50;1.30;;;7.50;99.90;;;;;;5344961;26;20004;-76
2024/04/19 02:49:22;;;;;;;3.20;1.55;;;7.50;99.90;;;;;;5346841;26;20020;-76
2024/04/19 02:51:47;;;;;;;4.38;1.40;;;7.60;99.90;;;;;;5344689;26;20005;-76
2024/04/19 02:54:13;;;;;;;2.28;1.70;;;7.60;99.90;;;;;;5346013;26;20001;-76
2024/04/19 02:56:39;;;;;;;3.42;1.67;;;7.60;99.90;;;;;;5346602;26;20460;-76
2024/04/19 02:59:05;;;;;;;2.28;1.63;;;7.60;99.90;;;;;;5346478;26;20016;-76
2024/04/19 03:01:31;;;;;;;1.58;1.10;;;7.70;99.90;;;;;;5346236;26;20015;-76
2024/04/19 03:03:56;;;;;;;2.72;1.50;;;7.70;99.90;;;;;;5344302;26;20522;-76
2024/04/19 03:06:23;;;;;;;2.15;1.33;;;7.70;99.90;;;;;;5347715;26;20007;-76
2024/04/19 03:08:49;;;;;;;3.35;1.55;;;7.70;99.90;;;;;;5348137;26;20005;-76
2024/04/19 03:11:25;;;;;;;3.03;1.65;;;7.70;99.90;;;;;;5346357;26;20041;-76
2024/04/19 03:13:52;;;;;;;3.55;1.55;;;7.80;99.90;;;;;;5347554;26;20408;-75
2024/04/19 03:16:30;;;;;;;2.40;1.50;;;7.70;99.90;;;;;;5348189;26;20001;-75
2024/04/19 03:18:56;;;;;;;1.95;1.50;;;7.80;99.90;;;;;;5348155;26;20012;-76
2024/04/19 03:21:42;;;;;;;2.22;1.60;;;7.90;99.90;;;;;;5344842;26;20015;-76
2024/04/19 03:24:08;;;;;;;2.28;1.60;;;7.80;99.90;;;;;;5347000;26;20341;-75
2024/04/19 03:26:34;;;;;;;2.88;1.83;;;7.90;99.90;;;;;;5346757;26;20005;-76
2024/04/19 03:28:59;;;;;;;1.58;1.33;;;8.00;99.90;;;;;;5346714;26;20005;-76
2024/04/19 03:31:25;;;;;;;1.60;1.50;;;8.00;99.90;;;;;;5346039;26;20074;-76
2024/04/19 03:33:51;;;;;;;3.13;1.70;;;8.00;99.90;;;;;;5345721;26;20403;-76
2024/04/19 03:36:17;;;;;;;4.13;1.90;;;7.90;99.90;;;;;;5346410;26;20034;-75
2024/04/19 03:38:45;;;;;;;2.65;1.70;;;8.00;99.90;;;;;;5344570;26;20001;-76
2024/04/19 03:41:10;;;;;;;1.88;1.40;;;8.00;99.90;;;;;;5345770;26;20001;-75
2024/04/19 03:46:40;;;;;;;3.28;1.65;;;8.10;99.90;;;;;;5345706;26;20005;-76
2024/04/19 03:49:26;;;;;;;2.88;1.45;;;8.10;99.90;;;;;;5344237;26;20476;-76
2024/04/19 03:51:53;;;;;;;2.63;1.85;;;8.10;99.90;;;;;;5345480;26;20015;-76
2024/04/19 03:54:19;;;;;;;3.72;2.10;;;8.10;99.90;;;;;;5345236;26;20001;-76
2024/04/19 03:56:44;;;;;;;3.20;2.35;;;8.20;99.90;;;;;;5345671;26;20004;-76
2024/04/19 03:59:12;;;;;;;7.43;2.78;;;8.20;99.90;;;;;;5345743;26;20477;-75
2024/04/19 04:01:38;;;;;;;7.53;3.20;;;8.20;99.90;;;;;;5345294;26;20005;-75
2024/04/19 04:04:04;;;;;;;7.63;3.65;;;8.30;99.90;;;;;;5345178;26;20429;-76
2024/04/19 04:06:30;;;;;;;8.38;3.90;;;8.30;99.90;;;;;;5345822;26;20029;-75
2024/04/19 04:08:56;;;;;;;7.43;4.35;;;8.30;99.90;;;;;;5333725;26;20449;-76
2024/04/19 04:11:23;;;;;;;10.85;4.80;;;8.30;99.90;;;;;;5345342;26;20021;-76
2024/04/19 04:13:48;;;;;;;8.13;4.00;;;8.40;99.90;;;;;;5345011;26;20070;-75
2024/04/19 04:16:15;;;;;;;8.52;3.72;;;8.40;99.90;;;;;;5345435;26;20016;-76
2024/04/19 04:18:41;;;;;;;11.82;3.65;;;8.40;99.90;;;;;;5345247;26;20465;-76
2024/04/19 04:21:07;;;;;;;11.13;4.10;;;8.40;99.90;;;;;;5345119;26;20020;-76
2024/04/19 04:23:33;;;;;;;12.70;4.55;;;8.50;99.90;;;;;;5344803;26;20011;-76
2024/04/19 04:25:59;;;;;;;12.13;4.50;;;8.40;99.90;;;;;;5345185;26;20005;-76
2024/04/19 04:28:25;;;;;;;13.75;4.53;;;8.50;99.90;;;;;;5345492;26;20005;-76
2024/04/19 04:30:51;;;;;;;11.57;4.45;;;8.60;99.90;;;;;;5344792;26;20016;-75
2024/04/19 04:33:17;;;;;;;13.30;3.42;;;8.60;99.90;;;;;;5344529;26;20108;-75
2024/04/19 04:35:46;;;;;;;9.52;3.58;;;8.60;99.90;;;;;;5344550;26;20023;-76
2024/04/19 04:38:11;;;;;;;20.70;4.30;;;8.60;99.90;;;;;;5345118;26;20016;-76
2024/04/19 04:40:37;;;;;;;17.40;3.97;;;8.70;99.90;;;;;;5344903;26;20044;-76
2024/04/19 04:43:03;;;;;;;17.67;4.10;;;8.60;99.90;;;;;;5343382;26;20004;-76
2024/04/19 04:45:30;;;;;;;15.68;4.40;;;8.60;99.90;;;;;;5344279;26;20001;-76
2024/04/19 04:47:56;;;;;;;14.15;3.75;;;8.60;99.90;;;;;;5344802;26;20016;-76
2024/04/19 04:50:23;;;;;;;18.42;4.20;;;8.60;99.90;;;;;;5344473;26;20457;-76
2024/04/19 04:52:50;;;;;;;17.77;3.95;;;8.60;99.90;;;;;;5343213;26;20101;-76
2024/04/19 04:55:16;;;;;;;20.63;5.18;;;8.60;99.90;;;;;;5342717;26;20011;-76
2024/04/19 04:57:42;;;;;;;17.20;3.90;;;8.60;99.90;;;;;;5344780;26;20004;-76
2024/04/19 05:00:08;;;;;;;14.85;3.92;;;8.50;99.90;;;;;;5344409;26;20461;-76
2024/04/19 05:02:35;;;;;;;16.80;3.63;;;8.60;99.90;;;;;;5344691;26;20005;-75
2024/04/19 05:05:01;;;;;;;14.48;3.70;;;8.60;99.90;;;;;;5343980;26;20005;-76
2024/04/19 05:07:28;;;;;;;12.45;3.20;;;8.70;99.90;;;;;;5344491;26;20005;-76
2024/04/19 05:09:55;;;;;;;14.27;4.50;;;8.60;99.90;;;;;;5342756;26;20534;-76
2024/04/19 05:12:22;;;;;;;14.75;3.22;;;8.60;99.90;;;;;;5344895;26;20341;-76
2024/04/19 05:14:47;;;;;;;17.88;3.22;;;8.60;99.90;;;;;;5343700;26;20005;-76
2024/04/19 05:17:14;;;;;;;16.55;3.78;;;8.60;99.90;;;;;;5344381;26;20041;-76
2024/04/19 05:19:40;;;;;;;9.95;3.60;;;8.60;99.90;;;;;;5344314;26;20005;-76
2024/04/19 05:22:05;;;;;;;12.60;2.30;;;8.60;99.90;;;;;;5342480;26;20005;-76
2024/04/19 05:24:31;;;;;;;11.82;3.03;;;8.60;99.90;;;;;;5343559;26;20005;-76
2024/04/19 05:26:57;;;;;;;20.00;2.80;;;8.60;99.90;;;;;;5344160;26;20017;-75
2024/04/19 05:29:26;;;;;;;10.65;2.80;;;8.60;99.90;;;;;;5342613;26;20419;-76
2024/04/19 05:31:55;;;;;;;8.73;2.80;;;8.60;99.90;;;;;;5346950;26;20449;-78
2024/04/19 05:34:21;;;;;;;17.33;3.33;;;8.60;99.90;;;;;;5350332;26;20017;-78
2024/04/19 05:36:46;;;;;;;19.42;3.33;;;8.60;99.90;;;;;;5350819;26;20015;-78
2024/04/19 05:39:12;;;;;;;21.42;4.10;;;8.60;99.90;;;;;;5346954;26;20005;-76
2024/04/19 05:41:39;;;;;;;8.93;2.90;;;8.70;99.90;;;;;;5344244;26;20015;-78
2024/04/19 05:44:05;;;;;;;18.05;4.10;;;8.60;99.90;;;;;;5348752;26;20001;-78
2024/04/19 05:46:31;;;;;;;22.27;3.25;;;8.70;99.90;;;;;;5348032;26;20045;-75
2024/04/19 05:48:57;;;;;;;17.48;3.17;;;8.70;99.90;;;;;;5351744;26;20005;-78
2024/04/19 05:51:22;;;;;;;14.02;3.33;;;8.70;99.90;;;;;;5351770;26;20020;-78
2024/04/19 05:53:48;;;;;;;13.95;2.45;;;8.70;99.90;;;;;;5351626;26;20015;-78
2024/04/19 05:56:14;;;;;;;15.00;2.72;;;8.70;99.90;;;;;;5351095;26;20015;-78
2024/04/19 05:58:40;;;;;;;12.35;2.70;;;8.70;99.90;;;;;;5350982;26;20016;-78
2024/04/19 06:01:05;;;;;;;14.88;4.13;;;8.70;99.90;;;;;;5348692;26;20004;-78
2024/04/19 06:03:32;;;;;;;15.73;2.63;;;8.70;99.90;;;;;;5348156;26;20488;-78
2024/04/19 06:05:57;;;;;;;7.07;2.05;;;8.70;99.90;;;;;;5348361;26;20015;-78
2024/04/19 06:08:23;;;;;;;15.57;2.08;;;8.70;99.90;;;;;;5350686;26;20005;-78
2024/04/19 06:10:49;;;;;;;13.82;2.70;;;8.70;99.90;;;;;;5350259;26;20000;-79
2024/04/19 06:13:15;;;;;;;13.48;2.70;;;8.70;99.90;;;;;;5350046;26;20004;-79
2024/04/19 06:15:42;;;;;;;18.10;2.72;;;8.70;99.90;;;;;;5349974;26;20398;-79
2024/04/19 06:18:09;;;;;;;14.85;3.08;;;8.70;99.90;;;;;;5350092;26;20000;-79
2024/04/19 06:20:36;;;;;;;13.00;2.80;;;8.70;99.90;;;;;;5349692;26;20016;-79
2024/04/19 06:23:03;;;;;;;19.00;3.08;;;8.70;99.90;;;;;;5348904;26;20013;-80
2024/04/19 06:25:29;;;;;;;14.40;2.30;;;8.70;99.90;;;;;;5348483;26;20001;-79
2024/04/19 06:27:54;;;;;;;8.68;2.45;;;8.60;99.90;;;;;;5349382;26;20015;-79
2024/04/19 06:30:20;;;;;;;16.48;3.70;;;8.70;99.90;;;;;;5349155;26;20005;-79
2024/04/19 06:32:46;;;;;;;22.90;3.22;;;8.70;99.90;;;;;;5349519;26;20005;-79
2024/04/19 06:35:16;;;;;;;9.13;2.10;;;8.60;99.90;;;;;;5348684;26;20075;-79
2024/04/19 06:37:41;;;;;;;13.57;2.38;;;8.80;99.90;;;;;;5349285;26;20348;-79
2024/04/19 06:40:08;;;;;;;18.45;3.42;;;8.80;99.90;;;;;;5348870;26;20081;-79
2024/04/19 06:42:34;;;;;;;16.63;2.20;;;8.90;99.90;;;;;;5349171;26;20001;-79
2024/04/19 06:45:00;;;;;;;12.25;3.60;;;9.00;99.90;;;;;;5348531;26;20051;-79
2024/04/19 06:47:25;;;;;;;15.10;2.67;;;9.10;99.90;;;;;;5348378;26;20005;-79
2024/04/19 06:49:51;;;;;;;12.30;2.00;;;9.10;99.90;;;;;;5349262;26;20015;-80
2024/04/19 06:52:17;;;;;;;13.43;2.08;;;9.00;99.90;;;;;;5349143;26;20029;-79
2024/04/19 06:54:42;;;;;;;9.52;2.92;;;8.90;99.90;;;;;;5346812;26;20033;-79
2024/04/19 06:57:08;;;;;;;11.98;2.03;;;8.80;99.90;;;;;;5347146;26;20005;-80
2024/04/19 06:59:34;;;;;;;9.18;1.75;;;8.70;99.90;;;;;;5349411;26;20451;-80
2024/04/19 07:02:00;;;;;;;7.93;1.70;;;8.90;99.90;;;;;;5348796;26;20012;-79
2024/04/19 07:04:25;;;;;;;11.38;2.15;;;9.50;99.90;;;;;;5348285;26;20360;-79
2024/04/19 07:06:51;;;;;;;12.10;1.80;;;9.90;99.90;;;;;;5348352;26;20020;-79
2024/04/19 07:09:17;;;;;;;10.13;2.28;;;10.50;99.90;;;;;;5348571;26;20005;-79
2024/04/19 07:11:45;;;;;;;10.73;2.55;;;10.80;99.90;;;;;;5348250;26;20354;-80
2024/04/19 07:14:10;;;;;;;11.07;2.10;;;11.00;99.90;;;;;;5348720;26;20082;-79
2024/04/19 07:16:36;;;;;;;8.65;1.60;;;10.80;99.90;;;;;;5349159;26;20456;-80
2024/04/19 07:19:03;;;;;;;10.00;1.55;;;10.60;99.90;;;;;;5348852;26;20001;-79
2024/04/19 07:21:28;;;;;;;12.00;1.80;;;10.60;99.90;;;;;;5348265;26;20019;-80
2024/04/19 07:23:54;;;;;;;10.18;2.05;;;10.80;99.90;;;;;;5348892;26;20016;-80
2024/04/19 07:26:20;;;;;;;8.27;1.13;;;10.50;99.90;;;;;;5346761;26;20008;-78
2024/04/19 07:28:46;;;;;;;12.18;2.17;;;10.20;99.90;;;;;;5348749;26;20015;-79
2024/04/19 07:31:11;;;;;;;9.43;1.83;;;10.00;99.90;;;;;;5347687;26;20032;-78
2024/04/19 07:33:38;;;;;;;5.53;1.17;;;9.90;99.90;;;;;;5346662;26;20465;-78
2024/04/19 07:36:04;;;;;;;10.32;1.52;;;9.80;99.90;;;;;;5349414;26;20009;-78
2024/04/19 07:38:30;;;;;;;9.50;1.85;;;9.70;99.90;;;;;;5359780;26;20016;-77
2024/04/19 07:41:02;;;;;;;7.00;1.73;;;9.70;99.90;;;;;;5353528;26;20016;-78
2024/04/19 07:43:28;;;;;;;11.73;1.70;;;9.80;99.90;;;;;;5349691;26;20012;-80
2024/04/19 07:45:54;;;;;;;14.85;1.50;;;9.80;99.90;;;;;;5376957;26;20036;-80
2024/04/19 07:48:19;;;;;;;11.27;2.05;;;9.90;99.90;;;;;;5349246;26;20016;-79
2024/04/19 07:50:46;;;;;;;7.70;2.08;;;9.80;99.90;;;;;;5348358;26;20016;-79
2024/04/19 07:53:11;;;;;;;6.40;1.40;;;9.80;99.90;;;;;;5347576;26;20005;-79
2024/04/19 07:55:39;;;;;;;8.07;2.10;;;9.70;99.90;;;;;;5348806;26;20015;-79
2024/04/19 07:58:05;;;;;;;9.07;2.03;;;9.80;99.90;;;;;;5348728;26;20011;-80
2024/04/19 08:00:31;;;;;;;5.45;1.30;;;9.70;99.90;;;;;;5346501;26;20403;-78
2024/04/19 08:02:57;;;;;;;12.10;1.65;;;9.80;99.90;;;;;;5349063;26;20000;-78
2024/04/19 08:05:23;;;;;;;9.10;1.70;;;9.90;99.90;;;;;;5348205;26;20074;-79
2024/04/19 08:07:52;;;;;;;7.97;2.33;;;10.00;99.90;;;;;;5348198;26;20005;-79
2024/04/19 08:10:20;;;;;;;7.70;2.28;;;10.00;99.90;;;;;;5348583;26;20353;-79
2024/04/19 08:12:46;;;;;;;8.88;1.60;;;10.10;99.90;;;;;;5376079;26;20016;-79
2024/04/19 08:15:13;;;;;;;5.30;1.60;;;10.30;99.90;;;;;;5339860;26;20044;-79
2024/04/19 08:17:40;;;;;;;13.07;2.05;;;10.60;99.90;;;;;;5347815;26;20023;-79
2024/04/19 08:20:10;;;;;;;7.40;1.77;;;10.60;99.90;;;;;;5329906;26;20014;-79
2024/04/19 08:22:36;;;;;;;6.18;1.30;;;10.70;99.90;;;;;;5343503;26;20023;-78
2024/04/19 08:25:03;;;;;;;8.75;2.13;;;10.60;99.90;;;;;;5347892;26;20070;-78
2024/04/19 08:27:28;;;;;;;10.18;1.60;;;10.30;99.90;;;;;;5349247;26;20545;-78
2024/04/19 08:29:54;;;;;;;7.45;1.67;;;10.10;99.90;;;;;;5347115;26;20012;-78
2024/04/19 08:32:20;;;;;;;7.05;1.88;;;9.90;99.90;;;;;;5349065;26;20032;-78
2024/04/19 08:34:55;;;;;;;9.20;1.77;;;9.80;99.90;;;;;;5349323;26;20460;-78
2024/04/19 08:37:22;;;;;;;7.82;1.65;;;9.90;99.90;;;;;;5347644;26;20015;-77
2024/04/19 08:39:51;;;;;;;7.18;1.95;;;9.80;99.90;;;;;;5345409;26;20075;-77
2024/04/19 08:42:18;;;;;;;9.55;2.25;;;9.90;99.90;;;;;;5347183;26;20502;-77
2024/04/19 08:44:47;;;;;;;9.50;2.15;;;10.20;99.90;;;;;;5346205;26;20016;-77
2024/04/19 08:47:15;;;;;;;5.25;2.15;;;10.50;99.90;;;;;;5344615;26;20005;-77
2024/04/19 08:49:46;;;;;;;11.48;2.05;;;10.60;99.90;;;;;;5346938;26;20087;-78
2024/04/19 08:52:14;;;;;;;14.05;2.35;;;10.70;99.90;;;;;;5328632;26;20017;-78
2024/04/19 08:54:43;;;;;;;8.82;2.20;;;10.60;99.90;;;;;;5327125;26;20009;-78
2024/04/19 08:57:10;;;;;;;10.45;1.73;;;10.50;99.90;;;;;;5340987;26;20009;-78
2024/04/19 08:59:37;;;;;;;6.72;2.65;;;10.40;99.90;;;;;;5348704;26;20001;-78
2024/04/19 09:02:03;;;;;;;8.70;1.70;;;10.30;99.90;;;;;;5344617;26;20004;-78
2024/04/19 09:04:29;;;;;;;10.88;2.10;;;10.30;99.90;;;;;;5345252;26;20461;-78
2024/04/19 09:06:54;;;;;;;7.43;2.28;;;10.20;99.90;;;;;;5345761;26;20016;-78
2024/04/19 09:09:21;;;;;;;8.15;2.33;;;10.20;99.90;;;;;;5344958;26;20111;-77
2024/04/19 09:11:49;;;;;;;6.78;2.33;;;10.20;99.90;;;;;;5344633;26;20005;-78
2024/04/19 09:14:15;;;;;;;5.35;2.08;;;10.20;99.90;;;;;;5343296;26;20005;-77
2024/04/19 09:16:41;;;;;;;9.93;2.88;;;10.30;99.90;;;;;;5344617;26;20024;-77
2024/04/19 09:19:07;;;;;;;8.40;2.53;;;10.40;99.90;;;;;;5346320;26;20005;-78
2024/04/19 09:21:34;;;;;;;7.47;2.35;;;10.80;99.90;;;;;;5347724;26;20012;-77
2024/04/19 09:24:00;;;;;;;8.82;1.67;;;11.10;99.90;;;;;;5345389;26;20009;-77
2024/04/19 09:26:26;;;;;;;9.73;2.80;;;11.10;99.90;;;;;;5347815;26;20004;-76
2024/04/19 09:28:52;;;;;;;6.07;2.40;;;11.00;99.90;;;;;;5347600;26;20033;-77
2024/04/19 09:31:21;;;;;;;8.93;3.13;;;10.90;99.90;;;;;;5347479;26;20013;-77
2024/04/19 09:33:49;;;;;;;8.65;2.45;;;10.80;99.90;;;;;;5348140;26;20001;-77
2024/04/19 09:36:18;;;;;;;7.30;1.52;;;10.60;99.90;;;;;;5349206;26;20005;-77
2024/04/19 09:38:45;;;;;;;6.15;2.30;;;10.50;99.90;;;;;;5347766;26;20465;-77
2024/04/19 09:41:17;;;;;;;8.63;1.90;;;10.40;99.90;;;;;;5349412;26;20009;-77
2024/04/19 09:43:51;;;;;;;5.68;1.45;;;10.30;99.90;;;;;;5349702;26;20016;-78
2024/04/19 09:46:24;;;;;;;6.55;1.08;;;10.10;99.90;;;;;;5349193;26;20005;-77
2024/04/19 09:48:52;;;;;;;5.63;1.50;;;9.90;99.90;;;;;;5348467;26;20005;-78
2024/04/19 09:51:20;;;;;;;4.13;1.20;;;9.70;99.90;;;;;;5348794;26;20044;-78
2024/04/19 09:53:50;;;;;;;3.75;1.10;;;9.70;99.90;;;;;;5349897;26;20015;-77
2024/04/19 09:56:18;;;;;;;5.25;1.55;;;9.50;99.90;;;;;;5349175;26;20017;-77
2024/04/19 09:58:47;;;;;;;8.10;1.35;;;9.60;99.90;;;;;;5345904;26;20037;-77
2024/04/19 10:01:14;;;;;;;6.50;1.35;;;9.50;99.90;;;;;;5347354;26;20005;-77
2024/04/19 10:03:41;;;;;;;5.03;1.10;;;9.50;99.90;;;;;;5346931;26;20016;-76
2024/04/19 10:06:08;;;;;;;7.60;1.50;;;9.40;99.90;;;;;;5348069;26;20051;-77
2024/04/19 10:08:35;;;;;;;5.55;1.63;;;9.30;99.90;;;;;;5347022;26;20096;-78
2024/04/19 10:11:01;;;;;;;8.25;1.80;;;9.20;99.90;;;;;;5346143;26;20125;-78
2024/04/19 10:13:30;;;;;;;7.43;1.60;;;9.10;99.90;;;;;;5346146;26;20053;-78
2024/04/19 10:15:57;;;;;;;8.63;1.90;;;9.10;99.90;;;;;;5348590;26;20040;-78
2024/04/19 10:18:24;;;;;;;4.28;1.20;;;9.00;99.90;;;;;;5346861;26;20035;-78
2024/04/19 10:20:51;;;;;;;5.07;0.90;;;8.90;99.90;;;;;;5346544;26;20086;-77
2024/04/19 10:23:21;;;;;;;3.60;0.70;;;8.50;99.90;;;;;;5346740;26;20019;-77
2024/04/19 10:25:47;;;;;;;1.50;0.70;;;8.50;99.90;;;;;;5331457;26;20010;-77
2024/04/19 10:28:16;;;;;;;2.22;0.77;;;8.50;99.90;;;;;;5339833;26;19997;-78
2024/04/19 10:30:42;;;;;;;4.95;0.90;;;8.60;99.90;;;;;;5338405;26;20005;-77
2024/04/19 10:33:12;;;;;;;3.83;0.80;;;8.70;99.90;;;;;;5343451;26;20538;-77
2024/04/19 10:35:41;;;;;;;8.38;1.65;;;8.80;99.90;;;;;;5346790;26;20545;-77
2024/04/19 10:38:07;;;;;;;5.80;1.05;;;8.60;99.90;;;;;;5346682;26;20433;-77
2024/04/19 10:40:33;;;;;;;4.40;1.08;;;8.60;99.90;;;;;;5346432;26;20012;-77
2024/04/19 10:43:05;;;;;;;4.97;0.90;;;8.50;99.90;;;;;;5346673;26;20013;-76
2024/04/19 10:45:31;;;;;;;6.35;1.30;;;8.40;99.90;;;;;;5346117;26;20016;-77
2024/04/19 10:48:01;;;;;;;2.42;0.75;;;8.30;99.90;;;;;;5347297;26;20353;-77
2024/04/19 10:50:28;;;;;;;5.90;1.10;;;8.30;99.90;;;;;;5347040;26;20001;-78
2024/04/19 10:52:54;;;;;;;3.70;1.02;;;8.40;99.90;;;;;;5347236;26;20745;-77
2024/04/19 10:55:20;;;;;;;5.32;1.40;;;8.50;99.90;;;;;;5347332;26;20005;-78
2024/04/19 10:57:46;;;;;;;8.25;1.40;;;8.50;99.90;;;;;;5346753;26;20082;-77
2024/04/19 11:00:12;;;;;;;8.90;1.98;;;8.60;99.90;;;;;;5346807;26;20393;-78
2024/04/19 11:02:39;;;;;;;8.60;1.98;;;8.60;99.90;;;;;;5346737;26;20013;-77
2024/04/19 11:05:06;;;;;;;8.35;1.30;;;8.60;99.90;;;;;;5345694;26;20047;-77
2024/04/19 11:07:34;;;;;;;17.77;1.90;;;8.70;99.90;;;;;;5346064;26;20082;-77
2024/04/19 11:10:00;;;;;;;13.82;2.30;;;8.70;99.90;;;;;;5346090;26;20016;-77
2024/04/19 11:12:26;;;;;;;9.90;2.40;;;8.80;99.90;;;;;;5346149;26;20380;-77
2024/04/19 11:14:52;;;;;;;14.18;3.08;;;8.90;99.90;;;;;;5345440;26;20443;-77
2024/04/19 11:17:18;;;;;;;11.45;3.03;;;8.90;99.90;;;;;;5344562;26;20063;-77
2024/04/19 11:19:46;;;;;;;10.95;2.75;;;9.00;99.90;;;;;;5344269;26;20004;-77
2024/04/19 11:22:12;;;;;;;11.90;3.95;;;9.20;99.90;;;;;;5345645;26;20021;-77
2024/04/19 11:24:39;;;;;;;13.73;2.88;;;9.30;99.90;;;;;;5343800;26;20733;-77
2024/04/19 11:27:05;;;;;;;12.52;3.38;;;9.50;99.90;;;;;;5346108;26;20012;-77
2024/04/19 11:29:32;;;;;;;9.43;3.13;;;9.50;99.90;;;;;;5345354;26;20020;-77
2024/04/19 11:32:08;;;;;;;12.25;3.30;;;9.30;99.90;;;;;;5346855;26;20024;-79
2024/04/19 11:34:34;;;;;;;10.45;3.00;;;9.10;99.90;;;;;;5345749;26;20001;-77
2024/04/19 11:37:03;;;;;;;11.98;3.28;;;8.90;99.90;;;;;;5345851;26;20005;-77
2024/04/19 11:39:33;;;;;;;12.63;3.42;;;8.70;99.90;;;;;;5345909;26;20020;-77
2024/04/19 11:42:00;;;;;;;14.73;3.47;;;8.60;99.90;;;;;;5344526;26;20004;-76
2024/04/19 11:44:26;;;;;;;14.55;4.45;;;8.60;99.90;;;;;;5345155;26;20008;-76
2024/04/19 11:46:52;;;;;;;12.75;3.30;;;8.70;99.90;;;;;;5345763;26;20013;-76
2024/04/19 11:49:18;;;;;;;11.75;3.75;;;8.80;99.90;;;;;;5345709;26;20471;-76
2024/04/19 11:51:45;;;;;;;17.35;3.35;;;9.00;99.90;;;;;;5345568;26;20004;-77
2024/04/19 11:54:11;;;;;;;11.48;3.33;;;9.10;99.90;;;;;;5345238;26;20001;-77
2024/04/19 11:56:37;;;;;;;8.90;3.22;;;9.40;99.90;;;;;;5345943;26;20345;-76
2024/04/19 11:59:03;;;;;;;7.82;2.97;;;9.50;99.90;;;;;;5345023;26;20426;-78
2024/04/19 12:01:29;;;;;;;14.07;3.13;;;9.30;99.90;;;;;;5345537;26;20004;-78
2024/04/19 12:03:55;;;;;;;12.18;2.53;;;9.20;99.90;;;;;;5347089;26;20005;-77
2024/04/19 12:06:21;;;;;;;10.32;2.97;;;9.10;99.90;;;;;;5344825;26;20015;-74
2024/04/19 12:08:51;;;;;;;9.70;3.03;;;9.30;99.90;;;;;;5345447;26;20001;-74
2024/04/19 12:11:17;;;;;;;10.43;2.30;;;9.40;99.90;;;;;;5345188;26;20091;-75
2024/04/19 12:13:47;;;;;;;8.90;2.20;;;9.40;99.90;;;;;;5344683;26;20052;-74
2024/04/19 12:16:14;;;;;;;7.55;1.83;;;9.50;99.90;;;;;;5345549;26;20005;-74
2024/04/19 12:18:40;;;;;;;8.90;3.25;;;9.50;99.90;;;;;;5343574;26;20075;-74
2024/04/19 12:21:05;;;;;;;7.75;2.00;;;9.40;99.90;;;;;;5345013;26;20028;-75
2024/04/19 12:23:31;;;;;;;9.95;2.15;;;9.30;99.90;;;;;;5344914;26;20015;-74
2024/04/19 12:25:58;;;;;;;11.48;3.38;;;9.30;99.90;;;;;;5345242;26;20012;-74
2024/04/19 12:28:24;;;;;;;9.77;2.22;;;9.20;99.90;;;;;;5345035;26;20000;-74
2024/04/19 12:30:51;;;;;;;9.27;2.35;;;9.20;99.90;;;;;;5344929;26;20348;-75
2024/04/19 12:33:18;;;;;;;11.55;2.67;;;9.30;99.90;;;;;;5344881;26;20013;-74
2024/04/19 12:35:44;;;;;;;9.05;2.60;;;9.30;99.90;;;;;;5344664;26;20484;-74
2024/04/19 12:38:10;;;;;;;13.55;2.92;;;9.30;99.90;;;;;;5343288;26;20005;-74
2024/04/19 12:40:36;;;;;;;15.52;3.90;;;9.30;99.90;;;;;;5344833;26;20467;-74
2024/04/19 12:43:02;;;;;;;14.57;4.47;;;9.30;99.90;;;;;;5344848;26;20016;-74
2024/04/19 12:45:28;;;;;;;9.50;2.65;;;9.30;99.90;;;;;;5344766;26;20013;-74
2024/04/19 12:48:04;;;;;;;15.45;3.55;;;9.10;99.90;;;;;;5344884;26;20342;-74
2024/04/19 12:50:36;;;;;;;14.45;2.97;;;9.10;99.90;;;;;;5344739;26;20016;-74
2024/04/19 12:53:02;;;;;;;8.43;2.50;;;9.30;99.90;;;;;;5345311;26;20023;-80
2024/04/19 12:55:30;;;;;;;15.27;2.60;;;9.30;99.90;;;;;;5345625;26;20020;-80